Sunday, March 01, 2015
19:19 UTC
  |  Log In   |  Register Free
Airport Search:

La Porte Municipal Airport
(T41)

La Porte Municipal Airport Diagram
No Airport Diagram Available

FAA data valid effective January 08, 2015 - March 05, 2015 (unless otherwise noted).

 
 
 
 
 
 
 
 
 
 
 
 
 
 

Current Aviation Weather for La Porte Municipal Airport (T41)

METAR data is unavailable for T41. The nearest METAR location is at KEFD (6.2 nm SW from T41).

The most recent METAR observation for KEFD was updated at: 1914
METAR Summary (Translated METAR)
KEFD
011850Z 00000KT 2 1/2SM BR OVC006 20/20 A3021
(6.2 nm SW from T41)
KHOU
011853Z 36005KT 1/2SM BR OVC002 17/17 A3019 RMK AO2 SFC VIS 1 SLP228 T01720167
(11.3 nm SW from T41)
TAF Summary (Translated TAF)
KEFD
0114/0218 VRB06KT 1600 -RA BR BKN005 QNH3015INS TEMPO 0114/0122 -TSRA OVC005CB BECMG 0121/0122 09009KT 8000 -RA BKN006 QNH3014INS BECMG 0201/0202 35006KT 6000 BR BKN006 QNH3014INS TX18/0121Z TN12/0210Z AMD 011406
KHOU
(6.7 nm NW from KEFD)
011732Z 0118/0218 04004KT 1SM -RA BR OVC003 TEMPO 0118/0120 1/2SM FG VV002 FM012000 02007KT 1SM BR OVC004 TEMPO 0200/0204 1/2SM FG FM020400 VRB03KT 1/2SM FG OVC004 FM021500 36004KT 2SM BR VCSH OVC009
  Airport Weather Conditions for T41

Current weather conditions are
not available for T41


The nearest NOAA weather station
is at EFD, (6.2 nm SW from T41)
  
 Current Weather at EFD
68° F
Fog/Mist
North winds at 0.0 mph
EFD NOAA Radar

Pressure: 30.21 in
Humidity: 100%
Wind: Calm
Dew Point: 68.0°F
Visibility: 2.50 mi


Airport Weather Forecast for T41

Translated METAR and TAF for KEFD
Translated METAR for KEFD (1919 UTC 01 March 2015)
found at http://aviationweather.gov/adds/metars/
 
METAR text: KEFD 011850Z 00000KT 2 1/2SM BR OVC006 20/20 A3021
Conditions at: KEFD (HOUSTON/ELLINGTO, TX, US) observed 1850 UTC 01 March 2015
Temperature: 20.0°C (68°F)
Dewpoint: 20.0°C (68°F) [RH = 100%]
Pressure (altimeter): 30.21 inches Hg (1023.1 mb)
Winds: calm
Visibility: 2.50 miles (4.02 km)
Ceiling: 600 feet AGL
Clouds: overcast cloud deck at 600 feet AGL
Weather: BR  (mist)
Translated TAF for KEFD
Forecast for: KEFD (HOUSTON/ELLINGTO, TX, US)
TAF Text: TAF AMD KEFD 0118/0218 VRB06KT 0800 DZ FG BKN002 QNH3015INS
Forecast period: 1800 to 2100 UTC 01 March 2015
Forecast type: FROM: standard forecast or significant change
Winds: variable direction winds at 7 MPH (6 knots; 3.1 m/s)
Visibility: 0.50 miles (0.80 km)
Ceiling: 200 feet AGL
Clouds: broken clouds at 200 feet AGL
Weather: DZ FG  (drizzle, fog)
TAF Text: BECMG 0121/0122 09009KT 8000 -RA BKN006 QNH3014INS
Forecast period: 2100 UTC 01 March 2015 to 0100 UTC 02 March 2015
Forecast type: BECOMING: Conditions expected to become as follows by 2200 UTC 01 March 2015
Winds: from the E (90 degrees) at 10 MPH (9 knots; 4.7 m/s)
Visibility: 5 miles (8 km)
Ceiling: 600 feet AGL
Clouds: broken clouds at 600 feet AGL
Weather: -RA  (light rain)
TAF Text: BECMG 0201/0202 35006KT 6000 BR BKN006 QNH3014INS TX18/0121Z TN12/0210Z AMD 011819
Forecast period: 0100 to 1800 UTC 02 March 2015
Forecast type: BECOMING: Conditions expected to become as follows by 0200 UTC 02 March 2015
Winds: from the N (350 degrees) at 7 MPH (6 knots; 3.1 m/s)
Visibility: 4 miles (6 km)
Ceiling: 600 feet AGL
Clouds: broken clouds at 600 feet AGL
Weather: BR  (mist)

Find All Airport Services Find A Hotel Find A Rental Car Find A Golf Course Find A Restaurant $100 Hamburger



FBO's on the Field
FBO Company Facility Photos Services Transportation Aviation Fuel Prices: Prices include tax
Catering Weather Repair Courtesy Rental Type 100LL JetA JetA+ MOGAS 8087
 
Harvey & Rihn Aviation

This FBO has not yet been rated
FS:Independent
Last Updated: Jan-30
Login to update fuel prices
SS:
Contact Harvey & Rihn AviationMore FBO Information
 
Tri-Star Aviation

This FBO has not yet been rated
FS:Avfuel
Last Updated: Feb-20
Login to update fuel prices
SS:
Contact Tri-Star AviationMore FBO Information
 
Add another FBO Facility Photos Catering Weather Repair Courtesy Rental Type 100LL JetA JetA+ MOGAS 8087
Services Transportation Aviation Fuel Prices: Prices include tax


model-print
model-print
model-print
model-print